sensor_id;sensor_type;location;lat;lon;timestamp;pressure;altitude;pressure_sealevel;temperature;humidity
61963;BME280;47927;42.646;23.096;2023-04-29T00:01:17;92143.84;;;5.47;49.36
61963;BME280;47927;42.646;23.096;2023-04-29T00:03:42;92048.66;;;4.81;49.57
61963;BME280;47927;42.646;23.096;2023-04-29T00:06:09;92010.59;;;4.66;49.32
61963;BME280;47927;42.646;23.096;2023-04-29T00:08:36;92138.03;;;5.51;49.51
61963;BME280;47927;42.646;23.096;2023-04-29T00:11:01;92103.09;;;5.29;49.22
61963;BME280;47927;42.646;23.096;2023-04-29T00:13:27;92069.78;;;4.99;49.49
61963;BME280;47927;42.646;23.096;2023-04-29T00:15:52;92116.34;;;5.27;49.25
61963;BME280;47927;42.646;23.096;2023-04-29T00:18:18;92141.91;;;5.44;49.26
61963;BME280;47927;42.646;23.096;2023-04-29T00:20:43;92132.88;;;5.51;48.99
61963;BME280;47927;42.646;23.096;2023-04-29T00:23:09;92077.63;;;5.15;49.00
61963;BME280;47927;42.646;23.096;2023-04-29T00:25:35;92108.06;;;5.21;49.20
61963;BME280;47927;42.646;23.096;2023-04-29T00:28:02;92058.41;;;4.88;49.30
61963;BME280;47927;42.646;23.096;2023-04-29T00:30:29;92022.69;;;4.49;50.06
61963;BME280;47927;42.646;23.096;2023-04-29T00:32:55;92125.50;;;5.24;49.92
61963;BME280;47927;42.646;23.096;2023-04-29T00:35:21;92125.28;;;5.05;50.29
61963;BME280;47927;42.646;23.096;2023-04-29T00:37:46;92073.72;;;4.56;50.48
61963;BME280;47927;42.646;23.096;2023-04-29T00:40:12;91965.00;;;3.93;50.37
61963;BME280;47927;42.646;23.096;2023-04-29T00:42:40;92116.97;;;5.36;50.06
61963;BME280;47927;42.646;23.096;2023-04-29T00:45:08;92104.50;;;5.26;50.22
61963;BME280;47927;42.646;23.096;2023-04-29T00:47:36;92083.88;;;5.01;49.90
61963;BME280;47927;42.646;23.096;2023-04-29T00:50:02;92099.13;;;5.19;49.59
61963;BME280;47927;42.646;23.096;2023-04-29T00:52:29;92122.88;;;5.37;49.69
61963;BME280;47927;42.646;23.096;2023-04-29T00:54:56;92041.66;;;4.82;49.15
61963;BME280;47927;42.646;23.096;2023-04-29T00:57:22;92083.94;;;5.17;49.04
61963;BME280;47927;42.646;23.096;2023-04-29T00:59:48;92120.75;;;5.14;49.01
61963;BME280;47927;42.646;23.096;2023-04-29T01:02:14;92074.31;;;5.02;48.97
61963;BME280;47927;42.646;23.096;2023-04-29T01:04:41;92061.44;;;4.90;49.53
61963;BME280;47927;42.646;23.096;2023-04-29T01:10:01;92121.09;;;5.13;49.82
61963;BME280;47927;42.646;23.096;2023-04-29T01:15:09;92117.91;;;4.91;50.03
61963;BME280;47927;42.646;23.096;2023-04-29T01:17:43;92044.94;;;4.42;50.00
61963;BME280;47927;42.646;23.096;2023-04-29T01:20:13;92089.22;;;4.68;49.91
61963;BME280;47927;42.646;23.096;2023-04-29T01:22:39;92054.81;;;4.40;50.06
61963;BME280;47927;42.646;23.096;2023-04-29T01:25:06;92078.78;;;4.52;50.61
61963;BME280;47927;42.646;23.096;2023-04-29T01:27:50;92064.59;;;4.46;50.82
61963;BME280;47927;42.646;23.096;2023-04-29T01:33:35;92116.00;;;4.76;50.41
61963;BME280;47927;42.646;23.096;2023-04-29T01:36:20;92113.06;;;4.65;50.73
61963;BME280;47927;42.646;23.096;2023-04-29T01:44:28;92051.69;;;4.09;51.87
61963;BME280;47927;42.646;23.096;2023-04-29T01:46:55;92020.31;;;3.95;51.27
61963;BME280;47927;42.646;23.096;2023-04-29T01:49:52;92105.44;;;4.20;52.42
61963;BME280;47927;42.646;23.096;2023-04-29T01:52:18;92108.94;;;4.03;53.32
61963;BME280;47927;42.646;23.096;2023-04-29T01:54:51;92046.50;;;3.39;54.30
61963;BME280;47927;42.646;23.096;2023-04-29T01:57:17;92103.56;;;3.96;54.20
61963;BME280;47927;42.646;23.096;2023-04-29T02:00:01;92102.84;;;4.32;52.83
61963;BME280;47927;42.646;23.096;2023-04-29T02:02:47;92105.09;;;4.46;52.26
61963;BME280;47927;42.646;23.096;2023-04-29T02:05:22;92109.31;;;4.50;52.14
61963;BME280;47927;42.646;23.096;2023-04-29T02:07:53;92107.06;;;4.61;51.88
61963;BME280;47927;42.646;23.096;2023-04-29T02:10:19;92091.16;;;4.47;51.81
61963;BME280;47927;42.646;23.096;2023-04-29T02:12:47;92079.94;;;4.30;52.23
61963;BME280;47927;42.646;23.096;2023-04-29T02:18:17;92066.66;;;3.83;53.33
61963;BME280;47927;42.646;23.096;2023-04-29T02:20:43;92094.63;;;3.93;54.13
61963;BME280;47927;42.646;23.096;2023-04-29T02:23:08;92031.97;;;3.68;53.49
61963;BME280;47927;42.646;23.096;2023-04-29T02:25:34;91988.25;;;3.59;52.76
61963;BME280;47927;42.646;23.096;2023-04-29T02:28:00;92089.88;;;4.41;52.82
61963;BME280;47927;42.646;23.096;2023-04-29T02:30:38;92047.81;;;4.28;52.40
61963;BME280;47927;42.646;23.096;2023-04-29T02:33:09;92023.31;;;4.22;51.94
61963;BME280;47927;42.646;23.096;2023-04-29T02:35:36;91974.31;;;3.60;52.91
61963;BME280;47927;42.646;23.096;2023-04-29T02:38:02;92084.59;;;4.62;52.41
61963;BME280;47927;42.646;23.096;2023-04-29T02:40:27;92078.66;;;4.73;51.86
61963;BME280;47927;42.646;23.096;2023-04-29T02:42:53;92078.66;;;4.73;51.68
61963;BME280;47927;42.646;23.096;2023-04-29T02:45:19;92011.50;;;4.21;52.07
61963;BME280;47927;42.646;23.096;2023-04-29T02:47:44;92014.72;;;3.93;52.76
61963;BME280;47927;42.646;23.096;2023-04-29T02:50:10;92086.41;;;4.49;52.65
61963;BME280;47927;42.646;23.096;2023-04-29T02:52:35;92006.53;;;3.67;53.69
61963;BME280;47927;42.646;23.096;2023-04-29T02:55:01;92091.75;;;4.19;53.72
61963;BME280;47927;42.646;23.096;2023-04-29T02:57:27;92094.66;;;4.18;53.85
61963;BME280;47927;42.646;23.096;2023-04-29T02:59:54;91996.13;;;3.75;53.42
61963;BME280;47927;42.646;23.096;2023-04-29T03:02:19;92053.22;;;4.23;52.42
61963;BME280;47927;42.646;23.096;2023-04-29T03:04:49;92085.66;;;4.48;52.27
61963;BME280;47927;42.646;23.096;2023-04-29T03:07:15;92041.28;;;4.30;51.75
61963;BME280;47927;42.646;23.096;2023-04-29T03:09:41;91957.47;;;3.63;52.19
61963;BME280;47927;42.646;23.096;2023-04-29T03:12:07;92033.63;;;4.34;51.74
61963;BME280;47927;42.646;23.096;2023-04-29T03:14:32;92055.34;;;4.45;52.09
61963;BME280;47927;42.646;23.096;2023-04-29T03:17:16;92054.94;;;4.43;52.11
61963;BME280;47927;42.646;23.096;2023-04-29T03:19:43;92095.88;;;4.57;52.31
61963;BME280;47927;42.646;23.096;2023-04-29T03:22:09;92066.84;;;4.36;52.04
61963;BME280;47927;42.646;23.096;2023-04-29T03:24:37;92125.84;;;4.37;52.96
61963;BME280;47927;42.646;23.096;2023-04-29T03:27:03;92127.56;;;4.33;53.28
61963;BME280;47927;42.646;23.096;2023-04-29T03:29:30;92092.00;;;4.26;52.94
61963;BME280;47927;42.646;23.096;2023-04-29T03:31:56;92058.38;;;4.23;52.17
61963;BME280;47927;42.646;23.096;2023-04-29T03:34:22;91992.59;;;4.04;51.82
61963;BME280;47927;42.646;23.096;2023-04-29T03:36:57;92117.88;;;5.03;51.81
61963;BME280;47927;42.646;23.096;2023-04-29T03:39:23;92041.91;;;4.52;51.78
61963;BME280;47927;42.646;23.096;2023-04-29T03:41:48;91995.19;;;4.17;51.87
61963;BME280;47927;42.646;23.096;2023-04-29T03:44:14;92083.19;;;4.76;52.38
61963;BME280;47927;42.646;23.096;2023-04-29T03:46:40;92093.28;;;4.94;52.57
61963;BME280;47927;42.646;23.096;2023-04-29T03:49:05;92090.78;;;5.10;52.03
61963;BME280;47927;42.646;23.096;2023-04-29T03:51:31;92095.44;;;5.32;51.65
61963;BME280;47927;42.646;23.096;2023-04-29T03:54:09;92115.94;;;5.53;51.47
61963;BME280;47927;42.646;23.096;2023-04-29T03:56:35;92127.81;;;5.70;51.32
61963;BME280;47927;42.646;23.096;2023-04-29T03:59:01;92096.56;;;5.59;51.22
61963;BME280;47927;42.646;23.096;2023-04-29T04:01:27;92130.75;;;5.68;51.62
61963;BME280;47927;42.646;23.096;2023-04-29T04:03:53;92037.13;;;4.91;52.08
61963;BME280;47927;42.646;23.096;2023-04-29T04:06:18;92137.47;;;5.85;51.56
61963;BME280;47927;42.646;23.096;2023-04-29T04:08:44;92135.41;;;6.19;51.21
61963;BME280;47927;42.646;23.096;2023-04-29T04:11:16;92090.84;;;6.26;50.39
61963;BME280;47927;42.646;23.096;2023-04-29T04:13:54;92037.75;;;6.00;50.03
61963;BME280;47927;42.646;23.096;2023-04-29T04:16:20;92091.59;;;6.58;48.84
61963;BME280;47927;42.646;23.096;2023-04-29T04:18:45;92137.88;;;7.11;47.06
61963;BME280;47927;42.646;23.096;2023-04-29T04:21:30;92100.78;;;7.06;48.61
61963;BME280;47927;42.646;23.096;2023-04-29T04:24:04;92126.38;;;7.27;48.09
61963;BME280;47927;42.646;23.096;2023-04-29T04:26:30;92101.38;;;7.00;49.13
61963;BME280;47927;42.646;23.096;2023-04-29T04:29:17;92106.88;;;7.14;49.43
61963;BME280;47927;42.646;23.096;2023-04-29T04:31:50;92059.56;;;7.17;48.66
61963;BME280;47927;42.646;23.096;2023-04-29T04:34:18;92120.41;;;7.82;48.77
61963;BME280;47927;42.646;23.096;2023-04-29T04:36:46;92078.22;;;7.85;48.43
61963;BME280;47927;42.646;23.096;2023-04-29T04:39:30;92094.47;;;8.01;49.92
61963;BME280;47927;42.646;23.096;2023-04-29T04:41:57;92113.88;;;8.30;49.51
61963;BME280;47927;42.646;23.096;2023-04-29T04:44:24;92136.84;;;8.51;48.87
61963;BME280;47927;42.646;23.096;2023-04-29T04:46:59;92066.03;;;8.31;48.35
61963;BME280;47927;42.646;23.096;2023-04-29T04:49:51;92126.38;;;8.94;48.34
61963;BME280;47927;42.646;23.096;2023-04-29T04:52:20;92122.91;;;9.12;47.08
61963;BME280;47927;42.646;23.096;2023-04-29T04:54:54;92106.69;;;9.19;46.51
61963;BME280;47927;42.646;23.096;2023-04-29T04:57:22;92123.75;;;9.47;45.93
61963;BME280;47927;42.646;23.096;2023-04-29T04:59:48;92118.66;;;9.57;44.94
61963;BME280;47927;42.646;23.096;2023-04-29T05:02:14;92115.91;;;9.73;44.63
61963;BME280;47927;42.646;23.096;2023-04-29T05:04:39;92117.28;;;9.97;44.18
61963;BME280;47927;42.646;23.096;2023-04-29T05:07:05;92116.31;;;10.13;44.11
61963;BME280;47927;42.646;23.096;2023-04-29T05:09:47;92022.50;;;9.61;45.04
61963;BME280;47927;42.646;23.096;2023-04-29T05:12:13;92074.09;;;9.93;46.17
61963;BME280;47927;42.646;23.096;2023-04-29T05:14:39;92121.59;;;10.57;45.25
61963;BME280;47927;42.646;23.096;2023-04-29T05:17:05;92059.97;;;10.31;43.12
61963;BME280;47927;42.646;23.096;2023-04-29T05:19:31;92076.19;;;10.58;42.89
61963;BME280;47927;42.646;23.096;2023-04-29T05:21:56;92112.38;;;11.22;42.73
61963;BME280;47927;42.646;23.096;2023-04-29T05:24:22;92084.84;;;11.32;41.46
61963;BME280;47927;42.646;23.096;2023-04-29T05:26:48;92081.19;;;11.47;40.78
61963;BME280;47927;42.646;23.096;2023-04-29T05:29:16;92101.81;;;11.77;39.74
61963;BME280;47927;42.646;23.096;2023-04-29T05:31:53;92113.53;;;12.08;39.33
61963;BME280;47927;42.646;23.096;2023-04-29T05:34:19;92108.34;;;12.34;39.12
61963;BME280;47927;42.646;23.096;2023-04-29T05:36:44;92118.47;;;12.49;38.20
61963;BME280;47927;42.646;23.096;2023-04-29T05:39:11;92080.38;;;12.38;37.44
61963;BME280;47927;42.646;23.096;2023-04-29T05:41:36;92120.72;;;12.80;37.83
61963;BME280;47927;42.646;23.096;2023-04-29T05:44:11;92114.72;;;13.11;35.10
61963;BME280;47927;42.646;23.096;2023-04-29T05:46:37;92085.97;;;12.97;34.98
61963;BME280;47927;42.646;23.096;2023-04-29T05:49:03;92074.75;;;13.04;35.58
61963;BME280;47927;42.646;23.096;2023-04-29T05:51:36;92118.31;;;13.82;33.63
61963;BME280;47927;42.646;23.096;2023-04-29T05:54:02;92087.28;;;14.54;32.20
61963;BME280;47927;42.646;23.096;2023-04-29T05:56:37;92068.72;;;15.58;30.12
61963;BME280;47927;42.646;23.096;2023-04-29T05:59:03;92085.66;;;15.91;30.06
61963;BME280;47927;42.646;23.096;2023-04-29T06:01:29;92114.25;;;16.44;27.03
61963;BME280;47927;42.646;23.096;2023-04-29T06:04:00;92109.44;;;18.76;24.77
61963;BME280;47927;42.646;23.096;2023-04-29T06:06:37;92043.84;;;19.94;21.22
61963;BME280;47927;42.646;23.096;2023-04-29T06:09:18;92098.38;;;21.20;21.91
61963;BME280;47927;42.646;23.096;2023-04-29T06:11:48;92094.97;;;23.13;18.63
61963;BME280;47927;42.646;23.096;2023-04-29T06:14:43;92101.66;;;25.85;16.28
61963;BME280;47927;42.646;23.096;2023-04-29T06:17:09;92085.50;;;26.33;15.42
61963;BME280;47927;42.646;23.096;2023-04-29T06:19:35;92110.50;;;27.71;16.23
61963;BME280;47927;42.646;23.096;2023-04-29T06:22:01;92100.16;;;28.52;15.23
61963;BME280;47927;42.646;23.096;2023-04-29T06:24:26;92107.53;;;28.36;16.41
61963;BME280;47927;42.646;23.096;2023-04-29T06:26:52;92108.78;;;28.67;16.83
61963;BME280;47927;42.646;23.096;2023-04-29T06:29:17;92077.47;;;29.70;15.25
61963;BME280;47927;42.646;23.096;2023-04-29T06:31:43;92100.59;;;30.50;14.73
61963;BME280;47927;42.646;23.096;2023-04-29T06:34:08;92128.13;;;31.63;13.37
61963;BME280;47927;42.646;23.096;2023-04-29T06:36:43;92124.56;;;33.64;11.88
61963;BME280;47927;42.646;23.096;2023-04-29T06:39:23;92121.53;;;34.68;10.88
61963;BME280;47927;42.646;23.096;2023-04-29T06:42:12;92065.63;;;35.03;10.47
61963;BME280;47927;42.646;23.096;2023-04-29T06:44:44;92095.13;;;34.74;10.19
61963;BME280;47927;42.646;23.096;2023-04-29T06:47:27;92080.84;;;34.60;10.24
61963;BME280;47927;42.646;23.096;2023-04-29T06:50:03;92094.69;;;35.02;10.16
61963;BME280;47927;42.646;23.096;2023-04-29T06:52:29;92105.88;;;35.25;10.10
61963;BME280;47927;42.646;23.096;2023-04-29T06:54:56;92089.53;;;34.85;10.15
61963;BME280;47927;42.646;23.096;2023-04-29T06:57:21;92112.34;;;35.89;9.53
61963;BME280;47927;42.646;23.096;2023-04-29T06:59:47;92112.94;;;36.08;8.83
61963;BME280;47927;42.646;23.096;2023-04-29T07:02:12;92123.34;;;37.28;9.28
61963;BME280;47927;42.646;23.096;2023-04-29T07:04:38;92129.28;;;37.47;8.61
61963;BME280;47927;42.646;23.096;2023-04-29T07:07:04;92115.25;;;37.64;8.48
61963;BME280;47927;42.646;23.096;2023-04-29T07:09:29;92104.59;;;37.74;8.00
61963;BME280;47927;42.646;23.096;2023-04-29T07:11:55;92064.59;;;37.90;7.79
61963;BME280;47927;42.646;23.096;2023-04-29T07:14:21;92118.25;;;39.08;7.62
61963;BME280;47927;42.646;23.096;2023-04-29T07:16:51;92095.31;;;38.49;7.40
61963;BME280;47927;42.646;23.096;2023-04-29T07:19:19;92124.41;;;37.25;8.22
61963;BME280;47927;42.646;23.096;2023-04-29T07:21:45;92088.78;;;35.97;8.16
61963;BME280;47927;42.646;23.096;2023-04-29T07:24:10;92131.56;;;37.14;8.52
61963;BME280;47927;42.646;23.096;2023-04-29T07:26:36;92112.63;;;35.98;8.23
61963;BME280;47927;42.646;23.096;2023-04-29T07:29:03;92109.72;;;33.27;9.85
61963;BME280;47927;42.646;23.096;2023-04-29T07:31:28;92119.53;;;33.00;10.14
61963;BME280;47927;42.646;23.096;2023-04-29T07:33:54;92095.41;;;31.42;11.12
61963;BME280;47927;42.646;23.096;2023-04-29T07:36:20;92107.69;;;30.93;10.79
61963;BME280;47927;42.646;23.096;2023-04-29T07:38:45;92111.66;;;29.75;11.62
61963;BME280;47927;42.646;23.096;2023-04-29T07:41:11;92064.94;;;28.65;12.88
61963;BME280;47927;42.646;23.096;2023-04-29T07:43:37;92111.38;;;28.30;13.24
61963;BME280;47927;42.646;23.096;2023-04-29T07:46:03;92094.06;;;27.38;14.38
61963;BME280;47927;42.646;23.096;2023-04-29T07:48:30;92109.41;;;27.58;13.86
61963;BME280;47927;42.646;23.096;2023-04-29T07:50:55;92105.75;;;27.20;14.80
61963;BME280;47927;42.646;23.096;2023-04-29T07:53:21;92112.81;;;26.88;14.81
61963;BME280;47927;42.646;23.096;2023-04-29T07:55:50;92105.00;;;26.40;14.87
61963;BME280;47927;42.646;23.096;2023-04-29T07:58:17;92106.03;;;26.42;15.46
61963;BME280;47927;42.646;23.096;2023-04-29T08:00:46;92088.81;;;25.02;15.42
61963;BME280;47927;42.646;23.096;2023-04-29T08:03:12;92033.97;;;24.02;17.23
61963;BME280;47927;42.646;23.096;2023-04-29T08:05:38;92093.41;;;24.69;16.56
61963;BME280;47927;42.646;23.096;2023-04-29T08:08:04;92109.69;;;24.71;16.77
61963;BME280;47927;42.646;23.096;2023-04-29T08:10:30;92043.69;;;24.23;17.37
61963;BME280;47927;42.646;23.096;2023-04-29T08:12:56;92107.50;;;24.60;16.04
61963;BME280;47927;42.646;23.096;2023-04-29T08:15:22;92105.53;;;24.00;16.82
61963;BME280;47927;42.646;23.096;2023-04-29T08:17:47;92095.94;;;23.47;17.45
61963;BME280;47927;42.646;23.096;2023-04-29T08:20:13;92094.41;;;23.18;17.77
61963;BME280;47927;42.646;23.096;2023-04-29T08:22:39;92101.31;;;22.35;17.63
61963;BME280;47927;42.646;23.096;2023-04-29T08:25:05;92093.19;;;22.61;18.34
61963;BME280;47927;42.646;23.096;2023-04-29T08:27:31;92098.44;;;22.51;18.20
61963;BME280;47927;42.646;23.096;2023-04-29T08:29:56;92093.44;;;22.53;17.97
61963;BME280;47927;42.646;23.096;2023-04-29T08:32:22;92091.44;;;22.36;18.83
61963;BME280;47927;42.646;23.096;2023-04-29T08:34:47;92092.09;;;22.49;18.72
61963;BME280;47927;42.646;23.096;2023-04-29T08:37:13;92082.88;;;22.32;18.79
61963;BME280;47927;42.646;23.096;2023-04-29T08:39:39;92083.38;;;22.17;19.29
61963;BME280;47927;42.646;23.096;2023-04-29T08:42:10;92033.53;;;21.46;20.49
61963;BME280;47927;42.646;23.096;2023-04-29T08:44:35;92090.28;;;21.93;20.46
61963;BME280;47927;42.646;23.096;2023-04-29T08:47:01;92070.97;;;22.14;19.66
61963;BME280;47927;42.646;23.096;2023-04-29T08:49:30;92014.38;;;21.64;18.31
61963;BME280;47927;42.646;23.096;2023-04-29T08:51:59;92051.16;;;22.06;18.37
61963;BME280;47927;42.646;23.096;2023-04-29T08:54:25;92067.34;;;22.21;19.51
61963;BME280;47927;42.646;23.096;2023-04-29T08:56:52;92089.38;;;22.71;18.71
61963;BME280;47927;42.646;23.096;2023-04-29T08:59:19;92070.84;;;22.89;18.20
61963;BME280;47927;42.646;23.096;2023-04-29T09:01:45;92043.19;;;23.46;17.96
61963;BME280;47927;42.646;23.096;2023-04-29T09:06:48;92075.44;;;24.36;16.92
61963;BME280;47927;42.646;23.096;2023-04-29T09:09:14;92090.41;;;24.15;16.61
61963;BME280;47927;42.646;23.096;2023-04-29T09:11:40;92094.06;;;24.36;16.86
61963;BME280;47927;42.646;23.096;2023-04-29T09:14:05;92089.78;;;22.60;19.09
61963;BME280;47927;42.646;23.096;2023-04-29T09:16:32;92093.19;;;21.85;19.76
61963;BME280;47927;42.646;23.096;2023-04-29T09:18:59;92032.81;;;21.90;18.99
61963;BME280;47927;42.646;23.096;2023-04-29T09:21:26;92099.97;;;23.02;18.69
61963;BME280;47927;42.646;23.096;2023-04-29T09:24:00;92093.88;;;23.79;17.21
61963;BME280;47927;42.646;23.096;2023-04-29T09:26:27;92084.25;;;23.91;18.57
61963;BME280;47927;42.646;23.096;2023-04-29T09:29:12;92085.78;;;24.52;17.25
61963;BME280;47927;42.646;23.096;2023-04-29T09:31:43;92023.53;;;23.52;18.23
61963;BME280;47927;42.646;23.096;2023-04-29T09:34:09;92074.34;;;24.09;17.28
61963;BME280;47927;42.646;23.096;2023-04-29T09:36:47;91984.81;;;23.79;16.87
61963;BME280;47927;42.646;23.096;2023-04-29T09:39:20;92015.09;;;22.98;17.65
61963;BME280;47927;42.646;23.096;2023-04-29T09:44:32;92067.41;;;23.38;17.06
61963;BME280;47927;42.646;23.096;2023-04-29T09:47:07;92004.78;;;23.56;17.48
61963;BME280;47927;42.646;23.096;2023-04-29T09:49:47;92058.34;;;22.99;18.16
61963;BME280;47927;42.646;23.096;2023-04-29T09:52:15;92060.56;;;22.60;18.92
61963;BME280;47927;42.646;23.096;2023-04-29T09:54:45;92061.22;;;22.11;19.27
61963;BME280;47927;42.646;23.096;2023-04-29T09:57:12;92004.09;;;21.09;19.63
61963;BME280;47927;42.646;23.096;2023-04-29T09:59:42;92018.22;;;20.93;21.23
61963;BME280;47927;42.646;23.096;2023-04-29T10:02:15;92039.91;;;21.49;20.09
61963;BME280;47927;42.646;23.096;2023-04-29T10:05:05;92028.50;;;20.91;23.09
61963;BME280;47927;42.646;23.096;2023-04-29T10:07:50;92039.97;;;20.76;21.48
61963;BME280;47927;42.646;23.096;2023-04-29T10:10:34;92038.53;;;21.44;21.15
61963;BME280;47927;42.646;23.096;2023-04-29T10:13:00;92008.28;;;21.54;22.11
61963;BME280;47927;42.646;23.096;2023-04-29T10:15:35;92018.88;;;21.20;21.00
61963;BME280;47927;42.646;23.096;2023-04-29T10:18:18;92039.16;;;21.48;21.72
61963;BME280;47927;42.646;23.096;2023-04-29T10:20:46;92038.25;;;21.42;21.87
61963;BME280;47927;42.646;23.096;2023-04-29T10:23:13;91991.50;;;20.66;20.97
61963;BME280;47927;42.646;23.096;2023-04-29T10:25:41;92005.56;;;20.63;21.62
61963;BME280;47927;42.646;23.096;2023-04-29T10:28:11;91956.59;;;20.07;21.73
61963;BME280;47927;42.646;23.096;2023-04-29T10:30:43;92031.34;;;21.45;21.17
61963;BME280;47927;42.646;23.096;2023-04-29T10:33:10;91914.53;;;20.95;20.43
61963;BME280;47927;42.646;23.096;2023-04-29T10:35:36;92027.00;;;21.82;19.72
61963;BME280;47927;42.646;23.096;2023-04-29T10:38:34;92021.06;;;21.34;18.93
61963;BME280;47927;42.646;23.096;2023-04-29T10:41:02;91971.88;;;20.76;19.92
61963;BME280;47927;42.646;23.096;2023-04-29T10:43:29;91915.72;;;20.94;19.05
61963;BME280;47927;42.646;23.096;2023-04-29T10:46:20;92028.16;;;22.25;19.48
61963;BME280;47927;42.646;23.096;2023-04-29T10:48:46;91999.81;;;21.91;18.82
61963;BME280;47927;42.646;23.096;2023-04-29T10:51:26;91996.63;;;21.30;20.21
61963;BME280;47927;42.646;23.096;2023-04-29T10:56:55;92025.19;;;22.23;19.68
61963;BME280;47927;42.646;23.096;2023-04-29T11:01:53;91938.34;;;20.95;20.24
61963;BME280;47927;42.646;23.096;2023-04-29T11:04:21;91961.81;;;21.06;20.47
61963;BME280;47927;42.646;23.096;2023-04-29T11:06:52;91937.00;;;20.56;21.34
61963;BME280;47927;42.646;23.096;2023-04-29T11:09:26;92001.72;;;21.24;21.03
61963;BME280;47927;42.646;23.096;2023-04-29T11:14:35;91970.16;;;19.96;21.11
61963;BME280;47927;42.646;23.096;2023-04-29T11:17:09;91964.63;;;19.36;22.64
61963;BME280;47927;42.646;23.096;2023-04-29T11:19:40;91988.22;;;19.85;22.67
61963;BME280;47927;42.646;23.096;2023-04-29T11:22:27;92016.69;;;19.94;22.05
61963;BME280;47927;42.646;23.096;2023-04-29T11:25:04;91983.56;;;19.89;22.51
61963;BME280;47927;42.646;23.096;2023-04-29T11:27:40;91923.31;;;19.84;23.35
61963;BME280;47927;42.646;23.096;2023-04-29T11:30:08;91942.88;;;19.99;22.34
61963;BME280;47927;42.646;23.096;2023-04-29T11:35:16;92012.66;;;20.40;22.91
61963;BME280;47927;42.646;23.096;2023-04-29T11:37:44;92008.97;;;20.51;22.36
61963;BME280;47927;42.646;23.096;2023-04-29T11:40:11;91999.09;;;20.51;22.88
61963;BME280;47927;42.646;23.096;2023-04-29T11:42:47;91996.13;;;20.49;22.74
61963;BME280;47927;42.646;23.096;2023-04-29T11:45:13;91957.75;;;20.19;22.53
61963;BME280;47927;42.646;23.096;2023-04-29T11:47:43;91924.66;;;19.89;23.25
61963;BME280;47927;42.646;23.096;2023-04-29T11:50:10;91943.47;;;19.36;22.52
61963;BME280;47927;42.646;23.096;2023-04-29T11:52:37;91963.91;;;19.90;23.08
61963;BME280;47927;42.646;23.096;2023-04-29T11:55:05;91991.50;;;19.89;23.40
61963;BME280;47927;42.646;23.096;2023-04-29T11:57:30;91954.81;;;19.37;23.29
61963;BME280;47927;42.646;23.096;2023-04-29T11:59:57;91998.00;;;19.72;24.46
61963;BME280;47927;42.646;23.096;2023-04-29T12:02:29;91993.41;;;20.14;24.01
61963;BME280;47927;42.646;23.096;2023-04-29T12:04:56;91984.28;;;20.79;24.93
61963;BME280;47927;42.646;23.096;2023-04-29T12:07:22;91995.25;;;21.25;22.63
61963;BME280;47927;42.646;23.096;2023-04-29T12:09:49;91975.84;;;20.93;22.55
61963;BME280;47927;42.646;23.096;2023-04-29T12:12:15;91963.94;;;21.11;23.64
61963;BME280;47927;42.646;23.096;2023-04-29T12:14:41;91988.66;;;21.30;22.55
61963;BME280;47927;42.646;23.096;2023-04-29T12:17:10;91981.97;;;21.60;22.88
61963;BME280;47927;42.646;23.096;2023-04-29T12:19:36;91971.38;;;21.03;22.77
61963;BME280;47927;42.646;23.096;2023-04-29T12:22:03;91974.19;;;21.44;22.26
61963;BME280;47927;42.646;23.096;2023-04-29T12:24:34;91987.81;;;21.55;22.25
61963;BME280;47927;42.646;23.096;2023-04-29T12:27:00;91944.28;;;21.21;23.47
61963;BME280;47927;42.646;23.096;2023-04-29T12:29:26;91976.19;;;21.17;22.52
61963;BME280;47927;42.646;23.096;2023-04-29T12:31:52;91936.34;;;21.43;22.61
61963;BME280;47927;42.646;23.096;2023-04-29T12:34:24;91974.44;;;21.80;21.60
61963;BME280;47927;42.646;23.096;2023-04-29T12:36:50;91937.97;;;21.41;22.39
61963;BME280;47927;42.646;23.096;2023-04-29T12:39:16;91936.00;;;21.54;22.70
61963;BME280;47927;42.646;23.096;2023-04-29T12:41:42;91902.00;;;21.17;22.83
61963;BME280;47927;42.646;23.096;2023-04-29T12:44:08;91971.47;;;21.78;23.16
61963;BME280;47927;42.646;23.096;2023-04-29T12:46:38;91982.88;;;21.97;22.58
61963;BME280;47927;42.646;23.096;2023-04-29T12:49:05;91976.97;;;21.40;23.40
61963;BME280;47927;42.646;23.096;2023-04-29T12:51:32;91943.28;;;21.06;24.05
61963;BME280;47927;42.646;23.096;2023-04-29T12:54:02;91984.38;;;21.10;22.78
61963;BME280;47927;42.646;23.096;2023-04-29T12:56:33;91967.03;;;20.97;22.84
61963;BME280;47927;42.646;23.096;2023-04-29T12:59:08;91980.81;;;21.26;24.04
61963;BME280;47927;42.646;23.096;2023-04-29T13:01:35;91927.72;;;20.73;23.95
61963;BME280;47927;42.646;23.096;2023-04-29T13:04:01;91975.41;;;21.30;23.99
61963;BME280;47927;42.646;23.096;2023-04-29T13:06:26;91974.53;;;21.11;24.05
61963;BME280;47927;42.646;23.096;2023-04-29T13:08:52;91954.44;;;21.01;24.61
61963;BME280;47927;42.646;23.096;2023-04-29T13:11:17;91960.06;;;20.68;24.28
61963;BME280;47927;42.646;23.096;2023-04-29T13:13:43;91968.84;;;21.00;25.79
61963;BME280;47927;42.646;23.096;2023-04-29T13:16:09;91976.50;;;20.98;24.97
61963;BME280;47927;42.646;23.096;2023-04-29T13:18:35;91968.19;;;20.48;24.55
61963;BME280;47927;42.646;23.096;2023-04-29T13:21:01;91891.75;;;20.15;24.90
61963;BME280;47927;42.646;23.096;2023-04-29T13:23:27;91957.69;;;20.83;25.24
61963;BME280;47927;42.646;23.096;2023-04-29T13:25:52;91928.84;;;20.50;24.80
61963;BME280;47927;42.646;23.096;2023-04-29T13:28:18;91953.34;;;20.76;24.29
61963;BME280;47927;42.646;23.096;2023-04-29T13:30:44;91958.84;;;20.82;24.14
61963;BME280;47927;42.646;23.096;2023-04-29T13:33:09;91925.69;;;20.30;24.26
61963;BME280;47927;42.646;23.096;2023-04-29T13:35:35;91947.72;;;20.14;24.55
61963;BME280;47927;42.646;23.096;2023-04-29T13:38:02;91961.16;;;19.94;24.92